Time;durP1;ratioP1;P1;durP2;ratioP2;P2;SDS_P1;SDS_P2;PMS_P1;PMS_P2;Temp;Humidity;BMP_temperature;BMP_pressure;BME280_temperature;BME280_humidity;BME280_pressure;Samples;Min_cycle;Max_cycle;Signal;HPM_P1;HPM_P2
2021/11/16 11:38:17;;;;;;;74.43;34.45;;;;;;;5.35;73.66;102262.91;5096135;27;22222;-55
2021/11/16 11:40:43;;;;;;;73.05;31.83;;;;;;;5.27;73.59;102264.91;5075190;28;20357;-54
2021/11/16 11:43:20;;;;;;;80.47;32.30;;;;;;;5.24;73.46;102268.47;5088542;28;20058;-54
2021/11/16 11:45:46;;;;;;;67.55;29.27;;;;;;;5.25;73.55;102269.31;5103298;28;20028;-55
2021/11/16 11:48:18;;;;;;;62.22;29.70;;;;;;;5.26;73.46;102260.56;5088026;28;20477;-54
2021/11/16 11:50:54;;;;;;;67.53;29.67;;;;;;;5.21;73.64;102257.22;5088062;28;20051;-53
2021/11/16 11:53:24;;;;;;;64.40;29.13;;;;;;;5.22;74.18;102259.78;5075370;28;20021;-58
2021/11/16 11:55:56;;;;;;;68.05;29.90;;;;;;;5.23;74.38;102255.41;5079050;28;20036;-56
2021/11/16 11:58:22;;;;;;;62.22;27.85;;;;;;;5.27;73.99;102254.41;5091624;28;20024;-55
2021/11/16 12:00:50;;;;;;;61.83;27.27;;;;;;;5.32;74.14;102249.88;5081987;28;20024;-53
2021/11/16 12:03:15;;;;;;;69.75;30.75;;;;;;;5.30;74.36;102249.06;5074610;28;20159;-55
2021/11/16 12:05:42;;;;;;;63.35;27.85;;;;;;;5.32;73.95;102246.38;5076613;28;20036;-53
2021/11/16 12:08:09;;;;;;;69.25;30.48;;;;;;;5.28;74.02;102243.88;5074306;28;20067;-55
2021/11/16 12:10:35;;;;;;;63.08;29.27;;;;;;;5.26;73.55;102242.19;5077763;28;20055;-53
2021/11/16 12:16:46;;;;;;;65.20;26.30;;;;;;;5.23;74.08;102240.50;5044443;28;20427;-54
2021/11/16 12:19:12;;;;;;;57.20;25.42;;;;;;;5.19;73.92;102236.28;5033530;28;20477;-56
2021/11/16 12:21:39;;;;;;;61.22;27.33;;;;;;;5.17;73.78;102239.84;5033299;28;20025;-53
2021/11/16 12:24:13;;;;;;;57.90;26.92;;;;;;;5.19;73.91;102238.00;5036916;28;20049;-56
2021/11/16 12:26:54;;;;;;;70.68;28.52;;;;;;;5.22;74.21;102237.94;5033758;28;20064;-54
2021/11/16 12:29:25;;;;;;;64.55;27.25;;;;;;;5.20;74.34;102240.63;5037372;28;20521;-56
2021/11/16 12:31:50;;;;;;;64.88;29.52;;;;;;;5.17;74.39;102239.84;5031428;28;20036;-55
2021/11/16 12:34:37;;;;;;;58.92;26.83;;;;;;;5.16;74.30;102227.63;5033409;28;20038;-56
2021/11/16 12:37:02;;;;;;;64.18;26.23;;;;;;;5.15;74.24;102225.91;5033722;28;20056;-53
2021/11/16 12:39:28;;;;;;;60.45;27.83;;;;;;;5.14;74.89;102218.91;5036128;28;20026;-56
2021/11/16 12:42:11;;;;;;;58.17;26.55;;;;;;;5.11;74.69;102223.38;5032219;28;20022;-59
2021/11/16 12:44:47;;;;;;;60.10;26.52;;;;;;;5.14;74.64;102226.78;5031589;28;20029;-55
2021/11/16 12:47:14;;;;;;;66.32;26.38;;;;;;;5.10;75.78;102218.19;5033803;28;20668;-54
2021/11/16 12:49:41;;;;;;;59.38;24.88;;;;;;;5.13;74.81;102220.69;5033744;28;20045;-56
2021/11/16 12:52:08;;;;;;;53.75;23.60;;;;;;;5.10;75.20;102208.53;5032649;28;20032;-55
2021/11/16 12:54:34;;;;;;;59.70;24.20;;;;;;;5.17;75.02;102208.34;5030568;28;20056;-55
2021/11/16 12:57:00;;;;;;;57.97;25.48;;;;;;;5.15;75.33;102210.16;5032993;28;20026;-56
2021/11/16 12:59:31;;;;;;;58.70;25.33;;;;;;;5.14;74.86;102203.19;5034717;28;20037;-56
2021/11/16 13:01:59;;;;;;;68.20;26.80;;;;;;;5.13;74.98;102204.09;5035270;28;20037;-55
2021/11/16 13:04:41;;;;;;;51.53;22.25;;;;;;;5.15;74.69;102199.66;5032919;28;20087;-53
2021/11/16 13:07:18;;;;;;;53.35;23.30;;;;;;;5.15;74.42;102202.28;5034651;28;20021;-55
2021/11/16 13:09:45;;;;;;;56.38;23.67;;;;;;;5.15;74.51;102199.66;5032464;28;20400;-57
2021/11/16 13:26:28;;;;;;;58.10;23.00;;;;;;;4.87;75.61;102179.50;5150451;27;20406;-56
2021/11/16 13:31:16;;;;;;;61.08;26.33;;;;;;;4.85;77.50;102170.81;5050748;28;20411;-57
2021/11/16 13:33:57;;;;;;;59.05;27.30;;;;;;;4.82;77.07;102179.63;5031691;28;20086;-58
2021/11/16 13:36:28;;;;;;;61.72;26.75;;;;;;;4.82;77.27;102186.63;5044901;28;20029;-56
2021/11/16 13:39:04;;;;;;;62.20;26.92;;;;;;;4.82;77.34;102186.63;5047099;28;20190;-56
2021/11/16 13:41:56;;;;;;;59.00;26.65;;;;;;;4.88;77.04;102173.31;5052084;28;20025;-53
2021/11/16 13:44:43;;;;;;;66.75;28.02;;;;;;;4.83;77.28;102170.84;5049245;28;20490;-56
2021/11/16 13:47:16;;;;;;;56.05;25.75;;;;;;;4.83;77.52;102169.97;5048061;28;20412;-54
2021/11/16 13:49:43;;;;;;;59.53;23.88;;;;;;;4.85;76.73;102165.56;5045837;28;20398;-56
2021/11/16 13:52:21;;;;;;;49.90;21.35;;;;;;;4.93;76.80;102174.03;5048353;28;20481;-56
2021/11/16 13:54:49;;;;;;;57.85;23.70;;;;;;;5.03;76.52;102169.41;5046850;28;20538;-57
2021/11/16 13:57:18;;;;;;;65.18;26.00;;;;;;;4.90;76.77;102164.50;5046683;28;20880;-56
2021/11/16 13:59:50;;;;;;;59.53;26.95;;;;;;;4.89;76.50;102162.81;5044178;28;20044;-58
2021/11/16 14:02:16;;;;;;;55.15;25.45;;;;;;;4.91;77.08;102160.13;5044831;28;20045;-56
2021/11/16 14:04:43;;;;;;;55.45;23.73;;;;;;;4.88;76.97;102154.97;5048784;28;20033;-58
2021/11/16 14:07:10;;;;;;;59.60;25.33;;;;;;;4.89;77.51;102160.19;5032176;28;20067;-57
2021/11/16 14:09:36;;;;;;;57.92;25.27;;;;;;;4.82;77.05;102163.88;5048734;28;20036;-56
2021/11/16 14:12:01;;;;;;;47.50;21.52;;;;;;;4.83;77.75;102162.09;5046578;28;20041;-54
2021/11/16 14:14:27;;;;;;;52.45;25.63;;;;;;;4.84;77.61;102158.59;5044707;28;20037;-54
2021/11/16 14:16:54;;;;;;;62.28;23.38;;;;;;;4.83;78.13;102154.25;5047972;28;20132;-56
2021/11/16 14:19:20;;;;;;;66.93;27.30;;;;;;;4.75;78.31;102159.69;5037854;28;20468;-55
2021/11/16 14:21:46;;;;;;;58.97;24.25;;;;;;;4.73;78.45;102162.38;5048079;28;20025;-56
2021/11/16 14:24:12;;;;;;;54.85;25.65;;;;;;;4.77;78.13;102160.53;5048853;28;20040;-58
2021/11/16 14:26:38;;;;;;;60.22;25.50;;;;;;;4.81;78.14;102153.44;5060352;28;20056;-54
2021/11/16 14:29:05;;;;;;;57.97;25.27;;;;;;;4.78;78.70;102155.25;5053626;28;20489;-54
2021/11/16 14:31:32;;;;;;;56.28;25.33;;;;;;;4.75;78.68;102157.97;5054711;28;20033;-55
2021/11/16 14:33:59;;;;;;;67.63;28.05;;;;;;;4.74;78.80;102158.84;5047678;28;20052;-53
2021/11/16 14:36:33;;;;;;;52.47;22.92;;;;;;;4.78;78.90;102150.00;5052707;28;20034;-54
2021/11/16 14:39:06;;;;;;;65.53;26.05;;;;;;;4.78;79.36;102152.63;5050338;28;20021;-55
2021/11/16 14:41:32;;;;;;;59.03;25.25;;;;;;;4.83;78.43;102151.63;5044825;28;20068;-56
2021/11/16 14:44:04;;;;;;;51.90;23.02;;;;;;;4.77;78.74;102152.66;5046073;28;20500;-55
2021/11/16 14:46:29;;;;;;;58.88;26.95;;;;;;;4.73;79.41;102146.66;5043285;28;20120;-56
2021/11/16 14:48:56;;;;;;;64.40;25.70;;;;;;;4.75;78.99;102150.09;5036593;28;20091;-56
2021/11/16 14:51:30;;;;;;;58.92;24.08;;;;;;;4.80;78.78;102157.81;5040036;28;20363;-59
2021/11/16 14:53:57;;;;;;;57.10;25.08;;;;;;;4.76;78.95;102149.19;5040152;28;20025;-60
2021/11/16 14:56:27;;;;;;;59.65;26.95;;;;;;;4.81;78.32;102143.81;5041883;28;20504;-59
2021/11/16 14:58:57;;;;;;;65.15;26.23;;;;;;;4.82;78.74;102145.53;5035543;28;20037;-58
2021/11/16 15:01:24;;;;;;;52.88;22.20;;;;;;;4.83;78.76;102133.25;5055416;28;20029;-58
2021/11/16 15:03:51;;;;;;;57.60;24.83;;;;;;;4.82;79.15;102135.03;5039013;28;20530;-58
2021/11/16 15:06:23;;;;;;;62.65;27.13;;;;;;;4.70;79.85;102128.38;5041492;28;20033;-57
2021/11/16 15:08:49;;;;;;;66.20;27.35;;;;;;;4.62;79.74;102130.38;5041591;28;20037;-59
2021/11/16 15:11:16;;;;;;;74.10;30.00;;;;;;;4.61;80.43;102132.13;5042963;28;20033;-58
2021/11/16 15:13:42;;;;;;;63.28;26.52;;;;;;;4.65;79.64;102132.91;5038621;28;20029;-58
2021/11/16 15:16:12;;;;;;;66.90;30.10;;;;;;;4.58;80.12;102136.59;5047839;28;20028;-56
2021/11/16 15:18:37;;;;;;;76.65;31.67;;;;;;;4.56;80.81;102135.78;5039967;28;20036;-57
2021/11/16 15:21:24;;;;;;;73.53;31.25;;;;;;;4.62;80.45;102126.00;5034582;28;20029;-56
2021/11/16 15:23:50;;;;;;;62.58;27.60;;;;;;;4.68;80.23;102118.84;5041173;28;20605;-57
2021/11/16 15:26:19;;;;;;;61.05;25.52;;;;;;;4.71;79.66;102114.38;5037444;28;20128;-56
2021/11/16 15:28:48;;;;;;;68.53;30.42;;;;;;;4.67;80.33;102117.97;5039149;28;20066;-57
2021/11/16 15:31:13;;;;;;;70.22;28.08;;;;;;;4.65;80.34;102119.81;5035476;28;20433;-58
2021/11/16 15:33:44;;;;;;;75.30;29.95;;;;;;;4.66;79.95;102123.28;5034543;28;20021;-59
2021/11/16 15:36:13;;;;;;;68.30;29.15;;;;;;;4.62;79.90;102127.75;5036641;28;20037;-55
2021/11/16 15:38:59;;;;;;;70.22;30.23;;;;;;;4.60;79.97;102125.16;5036931;28;20017;-57
2021/11/16 15:41:41;;;;;;;75.30;31.50;;;;;;;4.60;80.25;102130.41;5039404;28;20032;-56
2021/11/16 15:44:28;;;;;;;66.85;27.83;;;;;;;4.62;80.23;102127.75;5038980;28;20049;-56
2021/11/16 15:57:29;;;;;;;80.65;31.67;;;;;;;4.49;81.56;102121.13;5032386;28;20068;-58
2021/11/16 15:59:58;;;;;;;92.53;34.93;;;;;;;4.50;81.13;102128.09;5031582;28;20072;-56
2021/11/16 16:02:27;;;;;;;79.53;32.60;;;;;;;4.54;80.84;102124.47;5033886;28;20287;-59
2021/11/16 16:05:15;;;;;;;76.07;32.53;;;;;;;4.53;81.35;102118.41;5038665;28;20066;-58
2021/11/16 16:07:42;;;;;;;80.40;32.55;;;;;;;4.48;81.45;102114.16;5032636;28;20036;-58
2021/11/16 16:10:07;;;;;;;92.82;34.38;;;;;;;4.42;81.46;102126.53;5031706;28;20032;-58
2021/11/16 16:12:33;;;;;;;78.72;32.25;;;;;;;4.52;81.17;102126.31;5033025;28;20072;-60
2021/11/16 16:14:58;;;;;;;87.53;34.45;;;;;;;4.49;81.34;102123.75;5032257;28;20048;-58
2021/11/16 16:17:33;;;;;;;87.82;31.95;;;;;;;4.41;81.61;102118.72;5031316;28;20030;-55
2021/11/16 16:20:03;;;;;;;105.75;37.88;;;;;;;4.44;82.45;102124.75;5031085;28;20022;-59
2021/11/16 16:22:30;;;;;;;72.97;29.58;;;;;;;4.48;82.08;102120.28;5032465;28;20087;-57
2021/11/16 16:24:55;;;;;;;88.95;32.65;;;;;;;4.45;81.98;102120.34;5031673;28;20028;-55
2021/11/16 16:27:20;;;;;;;93.70;35.05;;;;;;;4.47;81.75;102115.94;5031813;28;20037;-59
2021/11/16 16:29:46;;;;;;;83.40;32.20;;;;;;;4.45;82.02;102117.72;5030399;28;20037;-56
2021/11/16 16:32:11;;;;;;;97.60;33.08;;;;;;;4.39;82.57;102115.31;5031155;28;20032;-58
2021/11/16 16:34:37;;;;;;;87.18;35.05;;;;;;;4.37;82.75;102112.69;5028917;28;20037;-59
2021/11/16 16:37:03;;;;;;;86.88;32.22;;;;;;;4.42;82.32;102112.59;5032707;28;20028;-60
2021/11/16 16:39:28;;;;;;;92.20;35.33;;;;;;;4.41;82.60;102114.38;5032377;28;20029;-59
2021/11/16 16:41:54;;;;;;;83.25;32.72;;;;;;;4.42;82.17;102116.06;5031424;28;20091;-59
2021/11/16 16:44:19;;;;;;;83.80;32.33;;;;;;;4.49;81.97;102116.78;5029951;28;20033;-58
2021/11/16 16:46:55;;;;;;;78.00;29.92;;;;;;;4.49;82.18;102115.88;5029974;28;20045;-56
2021/11/16 16:49:21;;;;;;;94.72;35.92;;;;;;;4.41;82.73;102103.00;5029944;28;20132;-59
2021/11/16 16:51:49;;;;;;;77.95;30.45;;;;;;;4.51;82.01;102101.84;5036042;28;20035;-57
2021/11/16 16:54:15;;;;;;;80.15;31.30;;;;;;;4.54;82.05;102103.50;5034194;28;20033;-56
2021/11/16 16:56:42;;;;;;;96.25;35.72;;;;;;;4.47;82.73;102117.72;5031821;28;20080;-59
2021/11/16 16:59:15;;;;;;;86.68;31.92;;;;;;;4.44;82.56;102100.31;5031254;28;20037;-59
2021/11/16 17:01:46;;;;;;;76.60;28.92;;;;;;;4.44;82.34;102109.03;5034731;28;20044;-57
2021/11/16 17:04:12;;;;;;;82.35;32.88;;;;;;;4.47;82.58;102112.47;5035151;28;20026;-59
2021/11/16 17:06:37;;;;;;;77.20;30.40;;;;;;;4.47;82.49;102107.22;5033590;28;20111;-57
2021/11/16 17:09:04;;;;;;;84.78;33.65;;;;;;;4.47;82.47;102115.94;5034379;28;20040;-59
2021/11/16 17:11:29;;;;;;;81.55;31.17;;;;;;;4.42;82.55;102105.56;5034667;28;20436;-58
2021/11/16 17:13:58;;;;;;;83.47;31.42;;;;;;;4.40;82.35;102107.41;5034851;28;20033;-57
2021/11/16 17:16:25;;;;;;;79.35;31.70;;;;;;;4.41;82.52;102105.63;5023134;28;20074;-59
2021/11/16 17:18:59;;;;;;;83.85;32.88;;;;;;;4.49;81.80;102116.78;5035657;28;20022;-58
2021/11/16 17:21:24;;;;;;;76.10;31.23;;;;;;;4.50;82.26;102107.13;5040255;28;20029;-58
2021/11/16 17:23:50;;;;;;;89.50;32.80;;;;;;;4.42;82.52;102109.97;5041251;28;20607;-59
2021/11/16 17:26:16;;;;;;;95.55;35.80;;;;;;;4.36;82.66;102105.78;5036250;28;20104;-59
2021/11/16 17:28:41;;;;;;;88.07;34.00;;;;;;;4.35;83.75;102111.91;5033898;28;20118;-57
2021/11/16 17:31:07;;;;;;;94.10;35.08;;;;;;;4.35;83.41;102113.66;5036189;28;20068;-57
2021/11/16 17:33:32;;;;;;;92.60;35.65;;;;;;;4.35;83.19;102114.53;5036903;28;20045;-61
2021/11/16 17:35:58;;;;;;;90.95;32.33;;;;;;;4.36;83.26;102111.00;5035412;28;20069;-59
2021/11/16 17:38:23;;;;;;;90.03;32.83;;;;;;;4.41;83.29;102116.97;5032751;28;20026;-59
2021/11/16 17:40:49;;;;;;;81.68;33.40;;;;;;;4.45;82.73;102115.13;5034091;28;20037;-57
2021/11/16 17:43:14;;;;;;;80.70;31.60;;;;;;;4.48;82.18;102120.28;5035775;28;20038;-58
2021/11/16 17:45:40;;;;;;;80.40;30.80;;;;;;;4.43;82.83;102116.94;5033905;28;20065;-58
2021/11/16 17:48:05;;;;;;;68.65;30.27;;;;;;;4.40;82.83;102111.75;5034445;28;20470;-57
2021/11/16 17:50:35;;;;;;;72.22;32.33;;;;;;;4.35;82.48;102105.78;5034265;28;20021;-59
2021/11/16 17:53:04;;;;;;;80.85;32.13;;;;;;;4.35;82.70;102104.03;5038829;28;20036;-58
2021/11/16 17:55:29;;;;;;;69.15;30.67;;;;;;;4.37;82.55;102112.69;5035259;28;20109;-56
2021/11/16 17:57:55;;;;;;;68.70;27.30;;;;;;;4.38;83.00;102111.81;5035732;28;20393;-58
2021/11/16 18:00:20;;;;;;;77.13;32.55;;;;;;;4.48;82.42;102108.91;5037297;28;20036;-59
2021/11/16 18:02:50;;;;;;;84.55;32.15;;;;;;;4.44;83.01;102103.78;5035521;28;20466;-58
2021/11/16 18:08:00;;;;;;;70.22;27.23;;;;;;;4.49;82.96;102102.78;5039119;28;20044;-58
2021/11/16 18:10:30;;;;;;;73.65;27.27;;;;;;;4.61;81.72;102089.34;5036827;28;20033;-57
2021/11/16 18:12:55;;;;;;;71.55;29.23;;;;;;;4.54;81.68;102087.78;5037643;28;20025;-58
2021/11/16 18:15:21;;;;;;;71.28;29.80;;;;;;;4.52;82.39;102081.75;5041125;28;20587;-60
2021/11/16 18:17:46;;;;;;;64.05;27.15;;;;;;;4.59;82.10;102080.66;5043606;28;20045;-60
2021/11/16 18:20:13;;;;;;;66.85;28.23;;;;;;;4.61;81.67;102094.59;5043911;28;20025;-57
2021/11/16 18:22:38;;;;;;;71.97;29.50;;;;;;;4.52;82.31;102079.13;5049713;28;20028;-60
2021/11/16 18:25:05;;;;;;;79.57;31.45;;;;;;;4.49;82.79;102080.06;5038325;28;20079;-57
2021/11/16 18:27:31;;;;;;;77.00;29.00;;;;;;;4.47;82.83;102076.63;5038254;28;20044;-59
2021/11/16 18:29:56;;;;;;;73.13;29.40;;;;;;;4.47;83.11;102071.38;5038291;28;20547;-57
2021/11/16 18:32:23;;;;;;;73.22;29.88;;;;;;;4.44;82.99;102066.25;5036814;28;20041;-57
2021/11/16 18:34:49;;;;;;;68.00;27.23;;;;;;;4.50;82.79;102062.56;5041122;28;20354;-57
2021/11/16 18:37:14;;;;;;;77.05;29.70;;;;;;;4.50;82.77;102070.44;5040593;28;20027;-58
2021/11/16 18:39:43;;;;;;;77.05;29.05;;;;;;;4.51;83.23;102067.78;5039318;28;20064;-59
2021/11/16 18:42:12;;;;;;;70.88;27.52;;;;;;;4.57;82.49;102058.88;5038855;28;20025;-56
2021/11/16 18:44:43;;;;;;;73.32;29.58;;;;;;;4.55;83.12;102058.06;5041699;28;20063;-57
2021/11/16 18:49:37;;;;;;;65.00;26.33;;;;;;;4.57;82.73;102061.50;5041700;28;20032;-60
2021/11/16 18:52:03;;;;;;;71.82;25.42;;;;;;;4.61;82.78;102057.88;5042138;28;20037;-56
2021/11/16 18:54:28;;;;;;;73.28;28.17;;;;;;;4.57;83.15;102051.88;5040681;28;20045;-59
2021/11/16 18:57:12;;;;;;;72.15;26.95;;;;;;;4.59;83.23;102052.69;5042385;28;20029;-58
2021/11/16 18:59:38;;;;;;;68.22;26.20;;;;;;;4.62;82.64;102049.13;5041185;28;20736;-56
2021/11/16 19:02:05;;;;;;;65.72;27.70;;;;;;;4.65;83.24;102043.78;5044422;28;20029;-58
2021/11/16 19:04:30;;;;;;;73.15;27.90;;;;;;;4.71;82.67;102046.22;5045946;28;20056;-57
2021/11/16 19:06:56;;;;;;;59.47;25.13;;;;;;;4.79;82.04;102041.59;5041871;28;20465;-59
2021/11/16 19:09:22;;;;;;;75.78;28.77;;;;;;;4.82;82.32;102047.66;5043981;28;20040;-58
2021/11/16 19:11:47;;;;;;;61.05;25.67;;;;;;;4.79;81.76;102056.47;5040030;28;20041;-57
2021/11/16 19:14:17;;;;;;;66.10;25.25;;;;;;;4.71;82.17;102043.59;5041064;28;20029;-59
2021/11/16 19:16:42;;;;;;;56.35;23.10;;;;;;;4.75;82.41;102046.97;5038574;28;20087;-57
2021/11/16 19:19:08;;;;;;;74.40;27.98;;;;;;;4.69;83.03;102050.63;5042463;28;20441;-57
2021/11/16 19:21:33;;;;;;;68.93;25.95;;;;;;;4.72;83.07;102050.53;5043829;28;20028;-59
2021/11/16 19:23:59;;;;;;;68.18;26.10;;;;;;;4.78;82.68;102052.97;5044028;28;20027;-58
2021/11/16 19:26:24;;;;;;;66.00;24.73;;;;;;;4.80;82.70;102050.31;5040225;28;20041;-60
2021/11/16 19:28:53;;;;;;;68.75;26.50;;;;;;;4.72;83.09;102045.28;5036717;28;20052;-57
2021/11/16 19:31:19;;;;;;;59.95;25.13;;;;;;;4.74;82.87;102040.88;5035993;28;20033;-58
2021/11/16 19:33:45;;;;;;;91.05;29.45;;;;;;;4.77;83.05;102042.53;5038228;28;20029;-59
2021/11/16 19:36:12;;;;;;;65.72;26.52;;;;;;;4.76;83.67;102036.47;5041346;28;20515;-56
2021/11/16 19:38:45;;;;;;;66.43;27.23;;;;;;;4.78;83.57;102028.53;5036753;28;20079;-58
2021/11/16 19:41:11;;;;;;;70.40;26.92;;;;;;;4.79;83.73;102027.63;5037126;28;20025;-59
2021/11/16 19:43:36;;;;;;;67.45;27.38;;;;;;;4.82;83.30;102039.78;5041219;28;20037;-57
2021/11/16 19:46:02;;;;;;;76.45;26.33;;;;;;;4.77;83.84;102032.91;5043372;28;20082;-59
2021/11/16 19:48:30;;;;;;;71.68;26.88;;;;;;;4.82;83.75;102035.41;5039197;28;20025;-59
2021/11/16 19:50:56;;;;;;;70.28;26.77;;;;;;;4.77;83.91;102032.91;5035311;28;20063;-59
2021/11/16 19:53:21;;;;;;;71.25;25.95;;;;;;;4.76;84.51;102028.59;5040347;28;20069;-59
2021/11/16 19:55:47;;;;;;;70.72;27.85;;;;;;;4.77;84.37;102024.19;5039284;28;20491;-57
2021/11/16 19:58:15;;;;;;;79.28;27.83;;;;;;;4.77;84.48;102024.19;5041106;28;20036;-57
2021/11/16 20:00:41;;;;;;;71.97;26.42;;;;;;;4.86;84.26;102030.91;5041348;28;20045;-59
2021/11/16 20:03:08;;;;;;;67.07;25.20;;;;;;;4.83;84.52;102031.00;5038822;28;20062;-60
2021/11/16 20:05:33;;;;;;;71.97;27.38;;;;;;;4.82;84.18;102024.06;5038306;28;20025;-58
2021/11/16 20:07:59;;;;;;;65.32;25.02;;;;;;;4.85;84.24;102016.09;5035989;28;20041;-57
2021/11/16 20:10:24;;;;;;;71.20;26.10;;;;;;;4.82;84.14;102013.56;5038609;28;20427;-57
2021/11/16 20:12:49;;;;;;;70.10;25.77;;;;;;;4.84;84.86;102017.00;5037676;28;20041;-56
2021/11/16 20:15:16;;;;;;;74.78;27.15;;;;;;;4.86;84.67;102015.19;5036809;28;20034;-57
2021/11/16 20:17:46;;;;;;;63.65;24.70;;;;;;;4.90;84.46;102016.81;5035017;28;20113;-57
2021/11/16 20:20:11;;;;;;;65.97;26.10;;;;;;;4.88;84.36;102005.50;5038298;28;20033;-59
2021/11/16 20:22:37;;;;;;;72.78;28.15;;;;;;;4.88;83.83;102023.84;5035253;28;20029;-58
2021/11/16 20:25:03;;;;;;;68.68;27.10;;;;;;;4.92;84.26;102010.59;5037861;28;20029;-58
2021/11/16 20:27:29;;;;;;;59.05;24.75;;;;;;;4.98;83.89;102012.16;5038532;28;20028;-56
2021/11/16 20:29:56;;;;;;;57.47;25.15;;;;;;;5.02;83.98;102008.56;5039385;28;20377;-55
2021/11/16 20:32:24;;;;;;;69.07;27.13;;;;;;;4.95;83.85;102007.03;5037131;28;20037;-56
2021/11/16 20:34:54;;;;;;;69.38;26.10;;;;;;;4.96;84.25;102011.38;5035811;28;20033;-59
2021/11/16 20:37:21;;;;;;;69.32;26.45;;;;;;;4.99;84.39;102005.16;5036383;28;20033;-55
2021/11/16 20:45:26;;;;;;;69.18;26.27;;;;;;;5.02;83.89;102010.31;5041172;28;20422;-58
2021/11/16 21:01:13;;;;;;;80.72;29.40;;;;;;;5.06;83.96;101996.19;5038121;28;20053;-52
2021/11/16 21:03:39;;;;;;;88.53;31.95;;;;;;;5.03;84.07;101997.13;5037290;28;20021;-57
2021/11/16 21:06:06;;;;;;;91.60;33.35;;;;;;;5.00;84.45;101991.16;5039495;28;20030;-57
2021/11/16 21:08:31;;;;;;;101.10;32.83;;;;;;;4.98;84.96;102003.44;5035899;28;20060;-57
2021/11/16 21:10:57;;;;;;;96.18;32.30;;;;;;;5.05;84.37;101999.72;5038810;28;20060;-57
2021/11/16 21:13:22;;;;;;;85.00;31.35;;;;;;;5.05;84.58;102007.59;5036169;28;20025;-57
2021/11/16 21:15:48;;;;;;;85.50;31.00;;;;;;;5.10;83.88;102001.28;5036830;28;20040;-57
2021/11/16 21:18:13;;;;;;;86.57;29.95;;;;;;;5.08;84.03;102005.72;5035104;28;20037;-58
2021/11/16 21:20:39;;;;;;;90.95;31.00;;;;;;;5.16;83.86;102004.63;5044199;28;20037;-56
2021/11/16 21:23:04;;;;;;;85.82;31.80;;;;;;;5.24;83.46;101999.97;5034344;28;20026;-58
2021/11/16 21:25:31;;;;;;;86.60;31.98;;;;;;;5.18;83.74;102001.03;5035244;28;20018;-59
2021/11/16 21:27:56;;;;;;;85.03;31.55;;;;;;;5.20;84.38;102016.72;5037569;28;20033;-59
2021/11/16 21:30:21;;;;;;;83.47;30.05;;;;;;;5.19;83.94;102001.88;5038053;28;20420;-59
2021/11/16 21:32:47;;;;;;;82.40;31.67;;;;;;;5.22;84.09;102007.03;5040475;28;20064;-56
2021/11/16 21:35:12;;;;;;;87.00;33.00;;;;;;;5.24;83.88;102010.47;5038959;28;20037;-57
2021/11/16 21:37:38;;;;;;;91.60;33.20;;;;;;;5.22;84.59;101993.94;5035748;28;20029;-56
2021/11/16 21:40:04;;;;;;;90.80;33.65;;;;;;;5.14;84.90;101994.19;5036052;28;20539;-56
2021/11/16 21:42:29;;;;;;;82.07;28.65;;;;;;;5.18;84.64;101994.94;5040910;28;20036;-59
2021/11/16 21:44:55;;;;;;;91.45;31.67;;;;;;;5.16;84.62;102000.22;5046633;28;20350;-58
2021/11/16 21:47:20;;;;;;;85.72;29.27;;;;;;;5.07;84.56;101990.91;5037269;28;20113;-56
2021/11/16 21:49:46;;;;;;;86.43;30.17;;;;;;;5.09;84.86;101999.56;5037889;28;20041;-58
2021/11/16 21:52:12;;;;;;;77.82;29.08;;;;;;;5.17;84.79;101993.22;5038050;28;20080;-59
2021/11/16 21:54:37;;;;;;;69.78;25.95;;;;;;;5.15;84.98;101995.03;5040587;28;20064;-56
2021/11/16 21:57:03;;;;;;;73.22;25.90;;;;;;;5.18;84.24;101990.53;5043938;28;20037;-58
2021/11/16 21:59:29;;;;;;;68.25;26.33;;;;;;;5.25;84.72;101991.19;5042536;28;20094;-56
2021/11/16 22:01:54;;;;;;;71.28;28.20;;;;;;;5.23;84.57;101995.66;5037822;28;20442;-56
2021/11/16 22:04:31;;;;;;;71.35;27.42;;;;;;;5.25;84.35;101980.69;5040390;28;20033;-57
2021/11/16 22:07:01;;;;;;;67.93;25.63;;;;;;;5.37;84.00;101984.66;5041460;28;20025;-58
2021/11/16 22:09:27;;;;;;;72.00;27.98;;;;;;;5.32;84.41;101981.34;5045185;28;20033;-59
2021/11/16 22:11:53;;;;;;;79.65;27.63;;;;;;;5.34;84.11;101985.63;5038033;28;20034;-59
2021/11/16 22:14:20;;;;;;;68.22;27.63;;;;;;;5.35;84.25;101987.34;5042740;28;20033;-58
2021/11/16 22:16:54;;;;;;;71.07;26.73;;;;;;;5.34;83.76;101985.63;5040324;28;20033;-58
2021/11/16 22:19:20;;;;;;;69.35;24.60;;;;;;;5.31;84.50;101998.88;5038996;28;20128;-57
2021/11/16 22:21:45;;;;;;;81.93;28.35;;;;;;;5.29;84.00;101998.03;5042491;28;20108;-57
2021/11/16 22:24:10;;;;;;;86.25;30.33;;;;;;;5.29;84.73;101998.03;5041147;28;20493;-60
2021/11/16 22:26:36;;;;;;;74.22;27.23;;;;;;;5.35;84.26;101984.72;5037809;28;20116;-56
2021/11/16 22:31:40;;;;;;;75.10;27.67;;;;;;;5.44;83.30;101994.06;5039621;28;20542;-57
2021/11/16 22:34:05;;;;;;;68.50;26.73;;;;;;;5.42;83.83;101988.88;5039274;28;20041;-58
2021/11/16 22:36:31;;;;;;;72.15;27.55;;;;;;;5.39;84.02;101999.44;5039691;28;20436;-59
2021/11/16 22:38:56;;;;;;;61.90;24.25;;;;;;;5.42;83.79;102009.00;5040150;28;20482;-56
2021/11/16 22:41:33;;;;;;;73.80;27.77;;;;;;;5.41;83.60;101992.41;5037002;28;20036;-57
2021/11/16 22:44:04;;;;;;;73.97;27.02;;;;;;;5.42;84.15;101996.75;5037715;28;20116;-58
2021/11/16 22:46:30;;;;;;;69.50;25.58;;;;;;;5.56;82.91;102000.66;5044984;28;21039;-59
2021/11/16 22:48:56;;;;;;;67.20;24.92;;;;;;;5.55;83.28;101991.94;5042819;28;20021;-57
2021/11/16 22:51:21;;;;;;;67.13;24.90;;;;;;;5.59;82.53;101987.41;5039852;28;20025;-59
2021/11/16 22:53:46;;;;;;;61.88;25.80;;;;;;;5.54;83.27;101990.22;5041382;28;20516;-57
2021/11/16 22:56:12;;;;;;;66.45;26.65;;;;;;;5.56;83.15;101993.63;5039056;28;20489;-59
2021/11/16 22:58:37;;;;;;;60.53;23.98;;;;;;;5.52;83.36;101988.53;5037257;28;20335;-57
